首页
METAR-TAF:

METAR-TAF

机场 :

普爾科沃機場

圣彼得堡, 俄罗斯

纬度: 59-58N, 经度: 030-18E, 海拔: 4米

当前天气观测

该预报发布于38分钟前的10:30 UTC
风速10节,风向东南
温度 -1°C
湿度 86%
气压 1005 hPa
能见度10公里或以上
多云层高于600英尺
阴天层高于1900英尺

METAR: ULLI 281030Z 13005MPS 9999 BKN006 OVC019 M01/M03 Q1005 R10R/520550 R10L/510550 NOSIG RMK OBST OBSC

时间: 14:08 (11:08 UTC)

预报

该预报发布于3小时和9分钟前的07:59 UTC
预报有效从28日的 09点(UTC)到 29日的 09点(UTC)
风速6节,风向东南
能見度: 5000
多云层高于600英尺
多云层高于1500英尺
轻雾
短暂存在
从 28日的 09点(UTC)到 28日的 13点(UTC)
能見度: 0400
多云层高于200英尺
多云层高于500英尺
小雪, 雨, 冻雾
短暂存在
从 28日的 13点(UTC)到 28日的 18点(UTC)
风速6节,风向南转南东,有时为16节阵风
能見度: 3100
多云层高于300英尺
阴天层高于1000英尺
小雨, 雪, 轻雾
短暂存在
从 28日的 18点(UTC)到 29日的 06点(UTC)
能見度: 1200
阴天层高于200英尺
轻雾
成为
从 29日的 06点(UTC)到 29日的 09点(UTC)
多云层高于1100英尺
多云层高于1700英尺

TAF: ULLI 280759Z 2809/2909 13003MPS 5000 BR BKN006 BKN015 TEMPO 2809/2813 0400 -SNRA FZFG BKN002 BKN005 TEMPO 2813/2818 16003G08MPS 3100 -RASN BR BKN003 OVC010 TEMPO 2818/2906 1200 BR OVC002 BECMG 2906/2909 BKN011 BKN017

超过4000个机场的气象观测和天气预报(METAR&TAF报告)。

可查询的气象台以黄色和红色小点在地图上表示。

将鼠标移到小点上方,可查看气象台名称。

然后点击查看天气观测和预报。

如需切换地图:点击带黑十字的绿色按钮放大地图;点击带横线的绿色按钮缩小地图;或者点击绿色箭头查看邻近地区的地图。


METAR-TAF: